Time;durP1;ratioP1;P1;durP2;ratioP2;P2;SDS_P1;SDS_P2;PMS_P1;PMS_P2;Temp;Humidity;BMP_temperature;BMP_pressure;BME280_temperature;BME280_humidity;BME280_pressure;Samples;Min_cycle;Max_cycle;Signal;HPM_P1;HPM_P2
2022/01/09 00:00:26;;;;;;;3.95;2.45;;;;;;;;;;4995620;28;20037;-88
2022/01/09 00:02:52;;;;;;;3.97;2.65;;;;;;;;;;5008260;28;20033;-88
2022/01/09 00:05:17;;;;;;;3.97;2.88;;;;;;;;;;5008561;28;20062;-88
2022/01/09 00:07:43;;;;;;;4.18;2.30;;;;;;;;;;5008414;28;20022;-88
2022/01/09 00:10:10;;;;;;;3.58;2.38;;;;;;;;;;5004577;28;20117;-88
2022/01/09 00:12:35;;;;;;;3.55;2.30;;;;;;;;;;5005943;28;20030;-86
2022/01/09 00:15:01;;;;;;;3.50;2.30;;;;;;;;;;5009564;28;20539;-88
2022/01/09 00:17:27;;;;;;;3.92;2.60;;;;;;;;;;5011561;28;20543;-85
2022/01/09 00:19:52;;;;;;;3.85;2.80;;;;;;;;;;4995331;28;20137;-89
2022/01/09 00:22:26;;;;;;;4.10;2.80;;;;;;;;;;5008856;28;20026;-89
2022/01/09 00:24:51;;;;;;;4.38;3.28;;;;;;;;;;5007578;28;20157;-85
2022/01/09 00:27:16;;;;;;;5.10;3.15;;;;;;;;;;5010524;28;20116;-90
2022/01/09 00:29:42;;;;;;;5.32;3.50;;;;;;;;;;5009151;28;20518;-84
2022/01/09 00:32:07;;;;;;;6.15;3.65;;;;;;;;;;4994774;28;20442;-85
2022/01/09 00:34:33;;;;;;;6.03;3.78;;;;;;;;;;5012593;28;20029;-87
2022/01/09 00:36:58;;;;;;;5.18;3.67;;;;;;;;;;5014198;28;20503;-90
2022/01/09 00:39:23;;;;;;;8.52;2.90;;;;;;;;;;5010606;28;20052;-87
2022/01/09 00:41:49;;;;;;;6.28;2.50;;;;;;;;;;5010174;28;20048;-86
2022/01/09 00:44:14;;;;;;;6.10;2.05;;;;;;;;;;5009544;28;20045;-84
2022/01/09 00:46:39;;;;;;;9.20;1.80;;;;;;;;;;5006136;28;20037;-86
2022/01/09 00:49:05;;;;;;;7.32;1.58;;;;;;;;;;5015386;28;20499;-87
2022/01/09 00:51:31;;;;;;;8.68;1.60;;;;;;;;;;5004991;28;20129;-86
2022/01/09 00:53:57;;;;;;;11.70;1.67;;;;;;;;;;5007566;28;20098;-87
2022/01/09 00:56:22;;;;;;;9.35;1.63;;;;;;;;;;5008802;28;20030;-87
2022/01/09 00:58:48;;;;;;;13.65;1.90;;;;;;;;;;5011128;28;20120;-87
2022/01/09 01:01:13;;;;;;;11.73;2.45;;;;;;;;;;5008554;28;20052;-91
2022/01/09 01:03:39;;;;;;;11.82;2.95;;;;;;;;;;5010032;28;20603;-87
2022/01/09 01:06:04;;;;;;;20.23;3.15;;;;;;;;;;4993661;28;20029;-87
2022/01/09 01:08:29;;;;;;;17.85;2.95;;;;;;;;;;5006354;28;20041;-86
2022/01/09 01:10:55;;;;;;;24.70;4.25;;;;;;;;;;5005365;28;20034;-87
2022/01/09 01:13:21;;;;;;;23.15;3.08;;;;;;;;;;5003328;28;20036;-90
2022/01/09 01:15:46;;;;;;;22.92;2.92;;;;;;;;;;5002867;28;20041;-84
2022/01/09 01:18:11;;;;;;;21.73;3.22;;;;;;;;;;5010541;28;20468;-88
2022/01/09 01:20:37;;;;;;;15.32;3.03;;;;;;;;;;4989531;28;20056;-85
2022/01/09 01:23:03;;;;;;;19.05;2.70;;;;;;;;;;5008853;28;20522;-85
2022/01/09 01:25:28;;;;;;;18.17;2.70;;;;;;;;;;5009704;28;20025;-90
2022/01/09 01:27:53;;;;;;;21.10;3.50;;;;;;;;;;5006456;28;20522;-90
2022/01/09 01:30:19;;;;;;;20.27;3.55;;;;;;;;;;5005248;28;20099;-85
2022/01/09 01:32:45;;;;;;;23.27;3.15;;;;;;;;;;4991895;28;20404;-85
2022/01/09 01:35:11;;;;;;;19.52;2.97;;;;;;;;;;4989931;28;20022;-88
2022/01/09 01:37:41;;;;;;;15.32;2.78;;;;;;;;;;4990652;28;20030;-87
2022/01/09 01:40:09;;;;;;;18.88;3.13;;;;;;;;;;5007477;28;20026;-87
2022/01/09 01:42:34;;;;;;;27.15;3.83;;;;;;;;;;4994456;28;20083;-85
2022/01/09 01:45:00;;;;;;;23.70;3.25;;;;;;;;;;4993833;28;20038;-86
2022/01/09 01:47:25;;;;;;;28.08;3.25;;;;;;;;;;5008510;28;20026;-91
2022/01/09 01:49:50;;;;;;;17.55;2.60;;;;;;;;;;5007699;28;20030;-91
2022/01/09 01:52:21;;;;;;;24.65;3.38;;;;;;;;;;5009475;28;20028;-88
2022/01/09 01:54:47;;;;;;;24.23;3.17;;;;;;;;;;5005600;28;20033;-87
2022/01/09 01:57:13;;;;;;;25.55;3.38;;;;;;;;;;5009129;28;20022;-91
2022/01/09 01:59:38;;;;;;;17.77;3.30;;;;;;;;;;4991962;28;20037;-85
2022/01/09 02:02:04;;;;;;;23.83;3.50;;;;;;;;;;4990009;28;20522;-87
2022/01/09 02:04:29;;;;;;;20.02;3.17;;;;;;;;;;5008937;28;20028;-85
2022/01/09 02:06:56;;;;;;;25.13;3.25;;;;;;;;;;5003002;28;20036;-88
2022/01/09 02:09:23;;;;;;;22.48;2.80;;;;;;;;;;5004875;28;20029;-85
2022/01/09 02:11:48;;;;;;;23.73;3.50;;;;;;;;;;4991158;28;20022;-88
2022/01/09 02:14:13;;;;;;;21.88;3.08;;;;;;;;;;4991344;28;20029;-85
2022/01/09 02:16:43;;;;;;;32.42;3.70;;;;;;;;;;5007685;28;20030;-86
2022/01/09 02:19:13;;;;;;;26.65;3.70;;;;;;;;;;5005727;28;20046;-87
2022/01/09 02:21:44;;;;;;;31.05;3.95;;;;;;;;;;4990915;28;20034;-89
2022/01/09 02:24:11;;;;;;;16.25;2.85;;;;;;;;;;5008508;28;20025;-88
2022/01/09 02:26:37;;;;;;;26.52;3.22;;;;;;;;;;5003736;28;20042;-88
2022/01/09 02:29:04;;;;;;;23.42;3.95;;;;;;;;;;5005274;28;20025;-87
2022/01/09 02:31:30;;;;;;;24.50;3.17;;;;;;;;;;5005699;28;20029;-88
2022/01/09 02:33:55;;;;;;;19.23;3.33;;;;;;;;;;5006377;28;20480;-88
2022/01/09 02:36:21;;;;;;;20.73;3.08;;;;;;;;;;5008334;28;20101;-86
2022/01/09 02:38:48;;;;;;;24.70;3.45;;;;;;;;;;5008133;28;20021;-89
2022/01/09 02:41:14;;;;;;;31.08;3.85;;;;;;;;;;4991314;28;20026;-90
2022/01/09 02:43:39;;;;;;;24.33;3.58;;;;;;;;;;5005242;28;20036;-88
2022/01/09 02:48:38;;;;;;;25.00;3.90;;;;;;;;;;5008903;28;20033;-88
2022/01/09 02:51:09;;;;;;;18.83;2.83;;;;;;;;;;4991252;28;20052;-89
2022/01/09 02:53:36;;;;;;;21.10;3.45;;;;;;;;;;5009799;28;20033;-87
2022/01/09 02:56:04;;;;;;;19.23;2.53;;;;;;;;;;5009568;28;20026;-87
2022/01/09 02:58:30;;;;;;;21.00;3.53;;;;;;;;;;4991680;28;20412;-88
2022/01/09 03:00:56;;;;;;;19.65;3.38;;;;;;;;;;5004532;28;20037;-89
2022/01/09 03:03:21;;;;;;;20.25;3.05;;;;;;;;;;5008760;28;20652;-88
2022/01/09 03:05:47;;;;;;;24.27;3.75;;;;;;;;;;5006582;28;20030;-88
2022/01/09 03:08:12;;;;;;;15.73;2.90;;;;;;;;;;5008882;28;20531;-88
2022/01/09 03:10:38;;;;;;;18.02;2.42;;;;;;;;;;5008042;28;20044;-87
2022/01/09 03:13:06;;;;;;;21.92;3.13;;;;;;;;;;5011106;28;20100;-88
2022/01/09 03:15:34;;;;;;;18.48;2.33;;;;;;;;;;5011007;28;20500;-88
2022/01/09 03:18:00;;;;;;;17.67;2.80;;;;;;;;;;4996723;28;20469;-87
2022/01/09 03:20:27;;;;;;;25.65;2.85;;;;;;;;;;5013629;28;20041;-88
2022/01/09 03:22:54;;;;;;;21.65;3.22;;;;;;;;;;5014378;28;20113;-88
2022/01/09 03:25:21;;;;;;;28.65;2.67;;;;;;;;;;4996259;28;20030;-88
2022/01/09 03:27:48;;;;;;;21.15;2.70;;;;;;;;;;5010878;28;20036;-88
2022/01/09 03:30:13;;;;;;;17.17;2.70;;;;;;;;;;5008924;28;20030;-88
2022/01/09 03:32:40;;;;;;;19.48;2.65;;;;;;;;;;5009503;28;20175;-87
2022/01/09 03:35:09;;;;;;;19.70;2.95;;;;;;;;;;4997563;28;20462;-87
2022/01/09 03:37:35;;;;;;;17.23;2.75;;;;;;;;;;5011411;28;20037;-87
2022/01/09 03:40:01;;;;;;;18.88;2.65;;;;;;;;;;5017702;28;20476;-86
2022/01/09 03:42:26;;;;;;;15.77;2.15;;;;;;;;;;4993424;28;20065;-87
2022/01/09 03:44:52;;;;;;;17.27;2.47;;;;;;;;;;5008930;28;20531;-87
2022/01/09 03:47:17;;;;;;;13.20;2.38;;;;;;;;;;5006534;28;20415;-88
2022/01/09 03:49:42;;;;;;;15.43;2.60;;;;;;;;;;5016967;28;20040;-86
2022/01/09 03:52:08;;;;;;;16.98;2.72;;;;;;;;;;5008071;28;20021;-88
2022/01/09 03:54:36;;;;;;;26.13;2.67;;;;;;;;;;5011186;28;20152;-87
2022/01/09 03:57:02;;;;;;;19.55;2.53;;;;;;;;;;5011785;28;20032;-86
2022/01/09 03:59:27;;;;;;;17.30;2.40;;;;;;;;;;5009049;28;20399;-88
2022/01/09 04:01:54;;;;;;;12.18;2.17;;;;;;;;;;5012690;28;20022;-88
2022/01/09 04:04:20;;;;;;;18.88;2.70;;;;;;;;;;4999729;28;20111;-87
2022/01/09 04:06:48;;;;;;;15.68;2.88;;;;;;;;;;5008049;28;20076;-87
2022/01/09 04:09:27;;;;;;;17.98;2.45;;;;;;;;;;4997312;28;20022;-87
2022/01/09 04:11:56;;;;;;;16.10;2.50;;;;;;;;;;5010743;28;20032;-87
2022/01/09 04:14:21;;;;;;;12.38;1.92;;;;;;;;;;5010413;28;20022;-86
2022/01/09 04:16:47;;;;;;;12.90;1.98;;;;;;;;;;5010736;28;20391;-87
2022/01/09 04:19:13;;;;;;;15.57;2.55;;;;;;;;;;5010617;28;20042;-86
2022/01/09 04:21:42;;;;;;;12.10;2.10;;;;;;;;;;4993151;28;20034;-87
2022/01/09 04:24:08;;;;;;;17.08;2.60;;;;;;;;;;5008910;28;20041;-87
2022/01/09 04:26:34;;;;;;;11.45;2.63;;;;;;;;;;5011047;28;20175;-88
2022/01/09 04:28:59;;;;;;;8.60;1.95;;;;;;;;;;5009303;28;20034;-87
2022/01/09 04:31:24;;;;;;;14.07;2.25;;;;;;;;;;5008293;28;20045;-87
2022/01/09 04:33:50;;;;;;;13.20;2.25;;;;;;;;;;4993288;28;20014;-87
2022/01/09 04:36:15;;;;;;;14.70;2.38;;;;;;;;;;5005255;28;20034;-88
2022/01/09 04:38:40;;;;;;;17.02;2.70;;;;;;;;;;4996010;28;20041;-88
2022/01/09 04:41:06;;;;;;;15.43;2.03;;;;;;;;;;5010041;28;20452;-87
2022/01/09 04:43:31;;;;;;;14.05;2.38;;;;;;;;;;4992829;28;20041;-88
2022/01/09 04:45:57;;;;;;;16.20;2.05;;;;;;;;;;4996543;28;20116;-85
2022/01/09 04:48:22;;;;;;;13.43;1.85;;;;;;;;;;4994162;28;20038;-87
2022/01/09 04:50:50;;;;;;;9.00;1.95;;;;;;;;;;5005851;28;20037;-87
2022/01/09 04:53:15;;;;;;;12.00;2.20;;;;;;;;;;5008022;28;20472;-87
2022/01/09 04:55:45;;;;;;;10.70;1.70;;;;;;;;;;5007594;28;20037;-88
2022/01/09 04:58:11;;;;;;;11.52;2.28;;;;;;;;;;5006888;28;20030;-86
2022/01/09 05:00:36;;;;;;;11.68;1.77;;;;;;;;;;5008034;28;20508;-87
2022/01/09 05:03:02;;;;;;;13.88;1.90;;;;;;;;;;4991742;28;20018;-88
2022/01/09 05:05:28;;;;;;;10.20;2.22;;;;;;;;;;5006680;28;20033;-87
2022/01/09 05:07:53;;;;;;;11.90;2.10;;;;;;;;;;5005754;28;20511;-87
2022/01/09 05:10:19;;;;;;;13.43;2.03;;;;;;;;;;4991786;28;20030;-87
2022/01/09 05:12:44;;;;;;;10.93;1.70;;;;;;;;;;5009182;28;20033;-86
2022/01/09 05:15:13;;;;;;;11.15;1.58;;;;;;;;;;5007310;28;20401;-88
2022/01/09 05:17:38;;;;;;;9.73;1.60;;;;;;;;;;5008500;28;20021;-88
2022/01/09 05:20:04;;;;;;;12.68;2.20;;;;;;;;;;4993465;28;20077;-87
2022/01/09 05:22:29;;;;;;;12.63;1.80;;;;;;;;;;5002707;28;20030;-87
2022/01/09 05:24:58;;;;;;;9.20;1.80;;;;;;;;;;4990892;28;20412;-86
2022/01/09 05:27:24;;;;;;;10.73;2.08;;;;;;;;;;5004223;28;20026;-87
2022/01/09 05:29:50;;;;;;;7.70;1.90;;;;;;;;;;5006116;28;20033;-87
2022/01/09 05:32:15;;;;;;;7.70;1.63;;;;;;;;;;5007201;28;20022;-87
2022/01/09 05:34:41;;;;;;;7.15;1.63;;;;;;;;;;5005046;28;20025;-87
2022/01/09 05:37:06;;;;;;;9.77;1.85;;;;;;;;;;4994696;28;20484;-86
2022/01/09 05:39:33;;;;;;;13.75;2.35;;;;;;;;;;4993646;28;20033;-87
2022/01/09 05:42:00;;;;;;;11.93;1.77;;;;;;;;;;5008012;28;20081;-87
2022/01/09 05:44:25;;;;;;;9.82;2.50;;;;;;;;;;5007716;28;20032;-87
2022/01/09 05:46:51;;;;;;;7.60;1.65;;;;;;;;;;5006316;28;20387;-87
2022/01/09 05:49:16;;;;;;;11.52;1.80;;;;;;;;;;4992142;28;20718;-88
2022/01/09 05:51:42;;;;;;;9.20;1.70;;;;;;;;;;4990989;28;20053;-86
2022/01/09 05:54:07;;;;;;;12.85;1.70;;;;;;;;;;5005448;28;20030;-87
2022/01/09 05:56:33;;;;;;;10.38;2.00;;;;;;;;;;4992715;28;20068;-87
2022/01/09 05:58:58;;;;;;;13.65;1.90;;;;;;;;;;4992028;28;20117;-87
2022/01/09 06:01:23;;;;;;;10.77;2.00;;;;;;;;;;5006523;28;20029;-86
2022/01/09 06:03:49;;;;;;;7.18;1.70;;;;;;;;;;5003324;28;20470;-88
2022/01/09 06:06:14;;;;;;;10.27;2.08;;;;;;;;;;4995304;28;20515;-87
2022/01/09 06:08:40;;;;;;;10.60;2.10;;;;;;;;;;5009092;28;20034;-87
2022/01/09 06:11:05;;;;;;;8.50;2.30;;;;;;;;;;5008024;28;20038;-87
2022/01/09 06:13:30;;;;;;;15.35;3.20;;;;;;;;;;5009201;28;20026;-86
2022/01/09 06:15:56;;;;;;;10.00;1.88;;;;;;;;;;4992668;28;20412;-87
2022/01/09 06:18:21;;;;;;;8.85;1.85;;;;;;;;;;5005369;28;20037;-87
2022/01/09 06:20:48;;;;;;;8.57;1.98;;;;;;;;;;5008812;28;20463;-88
2022/01/09 06:23:15;;;;;;;10.30;1.90;;;;;;;;;;5003244;28;20034;-88
2022/01/09 06:25:40;;;;;;;12.23;2.60;;;;;;;;;;4989324;28;20104;-86
2022/01/09 06:28:06;;;;;;;17.27;2.50;;;;;;;;;;4994832;28;20030;-86
2022/01/09 06:30:31;;;;;;;11.10;2.63;;;;;;;;;;5007184;28;20072;-86
2022/01/09 06:32:56;;;;;;;7.63;1.98;;;;;;;;;;5004542;28;20026;-88
2022/01/09 06:35:22;;;;;;;14.38;2.10;;;;;;;;;;5006648;28;20306;-87
2022/01/09 06:37:48;;;;;;;9.68;2.00;;;;;;;;;;5005191;28;20033;-88
2022/01/09 06:40:14;;;;;;;12.80;2.35;;;;;;;;;;5006944;28;20030;-87
2022/01/09 06:42:39;;;;;;;9.13;2.63;;;;;;;;;;5003910;28;20026;-88
2022/01/09 06:45:05;;;;;;;8.68;2.42;;;;;;;;;;4991413;28;20041;-87
2022/01/09 06:47:31;;;;;;;10.43;2.45;;;;;;;;;;5007050;28;20492;-87
2022/01/09 06:49:58;;;;;;;11.27;2.50;;;;;;;;;;5007824;28;20105;-87
2022/01/09 06:52:23;;;;;;;13.10;2.53;;;;;;;;;;5007387;28;20030;-86
2022/01/09 06:54:49;;;;;;;9.50;2.42;;;;;;;;;;5009581;28;20109;-87
2022/01/09 06:57:14;;;;;;;8.55;2.17;;;;;;;;;;5008013;28;20026;-86
2022/01/09 06:59:39;;;;;;;10.02;2.45;;;;;;;;;;4988524;28;20030;-87
2022/01/09 07:02:05;;;;;;;13.05;2.10;;;;;;;;;;5005786;28;20044;-86
2022/01/09 07:04:31;;;;;;;16.58;2.67;;;;;;;;;;5002035;28;20037;-87
2022/01/09 07:06:56;;;;;;;10.32;2.55;;;;;;;;;;5003581;28;20034;-87
2022/01/09 07:09:23;;;;;;;8.68;2.20;;;;;;;;;;5006633;28;20022;-88
2022/01/09 07:11:48;;;;;;;9.05;2.40;;;;;;;;;;5003285;28;20076;-87
2022/01/09 07:14:14;;;;;;;9.98;2.30;;;;;;;;;;5010148;28;20034;-87
2022/01/09 07:16:40;;;;;;;10.48;2.08;;;;;;;;;;5006162;28;20034;-88
2022/01/09 07:19:05;;;;;;;10.90;2.10;;;;;;;;;;5000910;28;20089;-88
2022/01/09 07:21:30;;;;;;;9.50;2.15;;;;;;;;;;4994687;28;20030;-85
2022/01/09 07:23:56;;;;;;;8.32;2.28;;;;;;;;;;5007505;28;20022;-87
2022/01/09 07:26:21;;;;;;;10.18;2.35;;;;;;;;;;5006813;28;20018;-87
2022/01/09 07:28:46;;;;;;;9.55;2.45;;;;;;;;;;5008295;28;20464;-87
2022/01/09 07:31:12;;;;;;;10.57;2.00;;;;;;;;;;5007023;28;20018;-87
2022/01/09 07:33:37;;;;;;;5.70;1.55;;;;;;;;;;5004443;28;20021;-87
2022/01/09 07:36:03;;;;;;;7.00;1.90;;;;;;;;;;4987777;28;20444;-86
2022/01/09 07:38:28;;;;;;;12.55;2.10;;;;;;;;;;5006172;28;20041;-87
2022/01/09 07:40:54;;;;;;;7.32;1.70;;;;;;;;;;5003288;28;20025;-87
2022/01/09 07:43:20;;;;;;;6.43;1.80;;;;;;;;;;5005987;28;20117;-86
2022/01/09 07:45:46;;;;;;;10.68;1.90;;;;;;;;;;5004999;28;20027;-88
2022/01/09 07:48:11;;;;;;;7.88;1.60;;;;;;;;;;4989934;28;20034;-86
2022/01/09 07:50:37;;;;;;;11.43;1.85;;;;;;;;;;4988129;28;20046;-88
2022/01/09 07:53:02;;;;;;;6.05;1.70;;;;;;;;;;5001171;28;20034;-86
2022/01/09 07:55:28;;;;;;;8.75;1.95;;;;;;;;;;4990512;28;20152;-87
2022/01/09 07:57:54;;;;;;;7.82;2.60;;;;;;;;;;5003310;28;20034;-87
2022/01/09 08:00:20;;;;;;;11.80;2.58;;;;;;;;;;5011399;28;20403;-87
2022/01/09 08:02:46;;;;;;;8.48;2.00;;;;;;;;;;5012177;28;20033;-87
2022/01/09 08:05:13;;;;;;;9.57;2.03;;;;;;;;;;4993940;28;20058;-87
2022/01/09 08:07:39;;;;;;;6.80;2.28;;;;;;;;;;5007023;28;20030;-85
2022/01/09 08:10:05;;;;;;;8.63;2.28;;;;;;;;;;5007938;28;20362;-86
2022/01/09 08:12:31;;;;;;;5.20;2.00;;;;;;;;;;5009357;28;20476;-87
2022/01/09 08:14:56;;;;;;;6.15;2.10;;;;;;;;;;4992031;28;20080;-87
2022/01/09 08:17:22;;;;;;;6.07;2.20;;;;;;;;;;5012770;28;20545;-88
2022/01/09 08:19:47;;;;;;;7.35;2.17;;;;;;;;;;5008734;28;20070;-87
2022/01/09 08:22:13;;;;;;;11.70;2.10;;;;;;;;;;5007329;28;20026;-87
2022/01/09 08:24:39;;;;;;;6.53;2.20;;;;;;;;;;4990151;28;20113;-88
2022/01/09 08:27:10;;;;;;;9.82;2.25;;;;;;;;;;5009105;28;20076;-87
2022/01/09 08:29:40;;;;;;;5.30;2.00;;;;;;;;;;5007757;28;20045;-87
2022/01/09 08:32:06;;;;;;;11.15;2.20;;;;;;;;;;5011031;28;20414;-87
2022/01/09 08:34:33;;;;;;;9.75;2.22;;;;;;;;;;5009123;28;20034;-87
2022/01/09 08:36:58;;;;;;;8.70;2.38;;;;;;;;;;5008256;28;20033;-87
2022/01/09 08:39:24;;;;;;;11.63;2.35;;;;;;;;;;4990348;28;20038;-85
2022/01/09 08:41:52;;;;;;;7.78;2.58;;;;;;;;;;4995204;28;20025;-87
2022/01/09 08:44:24;;;;;;;6.57;2.15;;;;;;;;;;4996740;28;20019;-85
2022/01/09 08:46:52;;;;;;;8.60;2.38;;;;;;;;;;5011821;28;20033;-88
2022/01/09 08:49:24;;;;;;;9.73;2.67;;;;;;;;;;5006777;28;20047;-86
2022/01/09 08:51:55;;;;;;;9.23;2.63;;;;;;;;;;4993398;28;20057;-86
2022/01/09 08:54:24;;;;;;;10.50;2.30;;;;;;;;;;4993913;28;20018;-86
2022/01/09 08:56:56;;;;;;;8.05;1.90;;;;;;;;;;5005614;28;20022;-86
2022/01/09 08:59:25;;;;;;;9.20;2.28;;;;;;;;;;5007333;28;20025;-86
2022/01/09 09:01:55;;;;;;;10.18;1.80;;;;;;;;;;4991303;28;20030;-84
2022/01/09 09:04:27;;;;;;;6.07;1.73;;;;;;;;;;4991938;28;20076;-85
2022/01/09 09:06:55;;;;;;;6.50;1.80;;;;;;;;;;5006749;28;20049;-86
2022/01/09 09:09:27;;;;;;;9.65;1.48;;;;;;;;;;5004584;28;20345;-85
2022/01/09 09:11:58;;;;;;;8.50;1.88;;;;;;;;;;5010483;28;20506;-86
2022/01/09 09:14:26;;;;;;;6.53;1.60;;;;;;;;;;5009232;28;20355;-86
2022/01/09 09:16:58;;;;;;;6.82;1.45;;;;;;;;;;4987662;28;20041;-84
2022/01/09 09:19:32;;;;;;;7.25;2.03;;;;;;;;;;5005056;28;20042;-84
2022/01/09 09:21:58;;;;;;;11.63;2.17;;;;;;;;;;4990257;28;20041;-87
2022/01/09 09:24:29;;;;;;;8.32;1.98;;;;;;;;;;4991804;28;20510;-86
2022/01/09 09:27:00;;;;;;;7.93;2.00;;;;;;;;;;4988211;28;20041;-86
2022/01/09 09:29:29;;;;;;;9.80;2.03;;;;;;;;;;4990612;28;20030;-87
2022/01/09 09:32:00;;;;;;;6.78;2.10;;;;;;;;;;5003603;28;20033;-84
2022/01/09 09:34:32;;;;;;;8.40;2.20;;;;;;;;;;5008073;28;20060;-84
2022/01/09 09:37:01;;;;;;;9.57;2.45;;;;;;;;;;4992531;28;20034;-87
2022/01/09 09:39:33;;;;;;;7.32;2.10;;;;;;;;;;5007119;28;20026;-86
2022/01/09 09:42:01;;;;;;;9.70;2.08;;;;;;;;;;5005278;28;20036;-86
2022/01/09 09:44:33;;;;;;;8.30;1.63;;;;;;;;;;5005134;28;20168;-86
2022/01/09 09:47:06;;;;;;;9.55;2.45;;;;;;;;;;5000389;28;20044;-86
2022/01/09 09:49:34;;;;;;;8.60;2.10;;;;;;;;;;4983801;28;20030;-86
2022/01/09 09:52:06;;;;;;;7.20;2.38;;;;;;;;;;4995862;28;20557;-85
2022/01/09 09:54:34;;;;;;;7.43;1.77;;;;;;;;;;4986688;28;20489;-86
2022/01/09 09:57:06;;;;;;;6.90;1.98;;;;;;;;;;4982841;28;20398;-86
2022/01/09 09:59:37;;;;;;;11.15;1.83;;;;;;;;;;4996215;28;20066;-86
2022/01/09 10:02:35;;;;;;;10.73;1.80;;;;;;;;;;5001606;28;20044;-86
2022/01/09 10:05:05;;;;;;;7.43;1.60;;;;;;;;;;5000008;28;20034;-85
2022/01/09 10:07:37;;;;;;;7.18;1.58;;;;;;;;;;4983198;28;20529;-86
2022/01/09 10:10:40;;;;;;;7.78;1.33;;;;;;;;;;5001069;28;20021;-85
2022/01/09 10:13:12;;;;;;;8.98;1.70;;;;;;;;;;4977158;28;20049;-86
2022/01/09 10:16:01;;;;;;;7.90;2.28;;;;;;;;;;4983514;28;20065;-86
2022/01/09 10:18:39;;;;;;;10.50;2.03;;;;;;;;;;5004486;28;21327;-86
2022/01/09 10:21:25;;;;;;;11.35;2.08;;;;;;;;;;5002206;28;20073;-87
2022/01/09 10:24:12;;;;;;;7.80;1.90;;;;;;;;;;4985845;28;20038;-86
2022/01/09 10:27:00;;;;;;;;;;;;;;;;;;;;;
2022/01/09 10:29:39;;;;;;;10.48;2.35;;;;;;;;;;5000937;28;20099;-87
2022/01/09 10:32:16;;;;;;;6.75;2.00;;;;;;;;;;5002974;28;20083;-86
2022/01/09 10:34:44;;;;;;;7.03;2.10;;;;;;;;;;5001313;28;20660;-86
2022/01/09 10:37:17;;;;;;;12.13;2.28;;;;;;;;;;5001603;28;20421;-86
2022/01/09 10:39:43;;;;;;;8.32;2.33;;;;;;;;;;4980857;28;20033;-86
2022/01/09 10:42:14;;;;;;;9.82;1.90;;;;;;;;;;5003393;28;20496;-87
2022/01/09 10:44:43;;;;;;;14.73;2.33;;;;;;;;;;4999701;28;20112;-86
2022/01/09 10:47:14;;;;;;;9.70;2.20;;;;;;;;;;5001385;28;20049;-86
2022/01/09 10:49:46;;;;;;;11.57;1.92;;;;;;;;;;4986242;28;20192;-86
2022/01/09 10:52:26;;;;;;;10.63;2.10;;;;;;;;;;4999349;28;20060;-86
2022/01/09 10:54:53;;;;;;;11.40;2.17;;;;;;;;;;4986739;28;20506;-87
2022/01/09 10:57:22;;;;;;;15.20;2.42;;;;;;;;;;5003339;28;20072;-86
2022/01/09 10:59:49;;;;;;;14.43;2.45;;;;;;;;;;5000603;28;20029;-85
2022/01/09 11:02:15;;;;;;;9.13;2.40;;;;;;;;;;5002031;28;20067;-86
2022/01/09 11:04:47;;;;;;;16.13;2.20;;;;;;;;;;4983136;28;20080;-86
2022/01/09 11:07:16;;;;;;;7.82;1.75;;;;;;;;;;4983659;28;20030;-86
2022/01/09 11:09:48;;;;;;;13.13;2.10;;;;;;;;;;4999268;28;20123;-86
2022/01/09 11:12:19;;;;;;;9.40;2.03;;;;;;;;;;4983821;28;20117;-86
2022/01/09 11:14:49;;;;;;;12.27;2.47;;;;;;;;;;5000037;28;20026;-86
2022/01/09 11:17:22;;;;;;;9.63;1.73;;;;;;;;;;4981669;28;20137;-86
2022/01/09 11:19:50;;;;;;;9.35;1.67;;;;;;;;;;5003665;28;20033;-88
2022/01/09 11:22:19;;;;;;;16.85;2.10;;;;;;;;;;4991007;28;20042;-85
2022/01/09 11:25:20;;;;;;;12.02;2.20;;;;;;;;;;4988552;28;20038;-85
2022/01/09 11:28:04;;;;;;;9.75;2.47;;;;;;;;;;5006122;28;20491;-86
2022/01/09 11:30:49;;;;;;;8.82;2.10;;;;;;;;;;4983884;28;20045;-85
2022/01/09 11:33:52;;;;;;;10.77;1.88;;;;;;;;;;5011177;28;20033;-86
2022/01/09 11:36:30;;;;;;;14.27;2.10;;;;;;;;;;4993585;28;20030;-85
2022/01/09 11:39:02;;;;;;;11.82;2.28;;;;;;;;;;5007984;28;20030;-85
2022/01/09 11:41:33;;;;;;;9.73;2.30;;;;;;;;;;4991976;28;20040;-86
2022/01/09 11:44:11;;;;;;;8.00;1.85;;;;;;;;;;5009341;28;20108;-85
2022/01/09 11:47:06;;;;;;;11.65;2.13;;;;;;;;;;5012060;28;20049;-84
2022/01/09 11:49:59;;;;;;;11.23;2.35;;;;;;;;;;5010397;28;20427;-85
2022/01/09 11:52:27;;;;;;;8.98;2.13;;;;;;;;;;4994747;28;20034;-85
2022/01/09 11:54:57;;;;;;;10.43;2.42;;;;;;;;;;4995160;28;20117;-85
2022/01/09 11:57:47;;;;;;;11.32;2.00;;;;;;;;;;5007308;28;20042;-85
2022/01/09 12:00:31;;;;;;;6.97;1.70;;;;;;;;;;4992501;28;20060;-85
2022/01/09 12:02:58;;;;;;;10.85;2.17;;;;;;;;;;4995245;28;20026;-83
2022/01/09 12:05:24;;;;;;;6.10;1.75;;;;;;;;;;5009953;28;20022;-86
2022/01/09 12:07:55;;;;;;;6.18;1.67;;;;;;;;;;5012493;28;20026;-87
2022/01/09 12:10:28;;;;;;;5.45;1.45;;;;;;;;;;4996785;28;20080;-82
2022/01/09 12:12:55;;;;;;;6.25;1.83;;;;;;;;;;5008584;28;20040;-86
2022/01/09 12:15:34;;;;;;;4.90;1.42;;;;;;;;;;5004314;28;20021;-82
2022/01/09 12:18:03;;;;;;;5.05;1.35;;;;;;;;;;5012516;28;20062;-84
2022/01/09 12:20:29;;;;;;;7.00;1.55;;;;;;;;;;5010393;28;20030;-86
2022/01/09 12:23:04;;;;;;;6.30;1.80;;;;;;;;;;5006990;28;20030;-86
2022/01/09 12:25:58;;;;;;;6.07;1.80;;;;;;;;;;5007804;28;20485;-87
2022/01/09 12:31:58;;;;;;;8.93;1.77;;;;;;;;;;4965996;28;19921;-83
2022/01/09 12:34:29;;;;;;;7.35;1.70;;;;;;;;;;4969036;28;20125;-86
2022/01/09 12:37:01;;;;;;;10.30;2.15;;;;;;;;;;4956479;28;20053;-87
2022/01/09 12:39:29;;;;;;;12.83;2.20;;;;;;;;;;4971489;28;20022;-85
2022/01/09 12:42:01;;;;;;;12.50;2.67;;;;;;;;;;4956310;28;20302;-84
2022/01/09 12:44:32;;;;;;;7.18;1.73;;;;;;;;;;4949224;28;20073;-89
2022/01/09 12:47:00;;;;;;;10.45;2.00;;;;;;;;;;4954017;28;20533;-86
2022/01/09 12:49:34;;;;;;;11.15;2.22;;;;;;;;;;4957090;28;20106;-88
2022/01/09 12:52:03;;;;;;;11.93;2.22;;;;;;;;;;4971363;28;20089;-83
2022/01/09 12:54:32;;;;;;;8.48;2.00;;;;;;;;;;4969997;28;20031;-85
2022/01/09 12:57:04;;;;;;;11.98;2.55;;;;;;;;;;4971029;28;20513;-84
2022/01/09 12:59:33;;;;;;;11.55;2.67;;;;;;;;;;4956487;28;20122;-84
2022/01/09 13:02:10;;;;;;;10.18;2.25;;;;;;;;;;4970047;28;20038;-82
2022/01/09 13:04:35;;;;;;;13.13;2.78;;;;;;;;;;4974024;28;20496;-86
2022/01/09 13:07:06;;;;;;;12.30;2.80;;;;;;;;;;5007055;28;20030;-85
2022/01/09 13:09:34;;;;;;;16.05;2.25;;;;;;;;;;4999173;28;20105;-86
2022/01/09 13:12:07;;;;;;;14.15;2.47;;;;;;;;;;5003287;28;20026;-83
2022/01/09 13:18:07;;;;;;;12.02;1.75;;;;;;;;;;4971043;28;20074;-86
2022/01/09 13:20:38;;;;;;;14.90;2.40;;;;;;;;;;4974655;28;20396;-89
2022/01/09 13:23:09;;;;;;;7.40;2.03;;;;;;;;;;5000639;28;20046;-83
2022/01/09 13:29:42;;;;;;;10.20;2.25;;;;;;;;;;4985611;28;20034;-85
2022/01/09 13:32:08;;;;;;;19.02;3.28;;;;;;;;;;4980675;28;20100;-86
2022/01/09 13:34:42;;;;;;;9.00;2.10;;;;;;;;;;4967464;28;20026;-82
2022/01/09 13:37:16;;;;;;;12.32;2.35;;;;;;;;;;4976298;28;20403;-82
2022/01/09 13:45:43;;;;;;;11.52;2.13;;;;;;;;;;4963572;28;20051;-84
2022/01/09 13:48:11;;;;;;;15.73;2.38;;;;;;;;;;4965535;28;20042;-87
2022/01/09 13:50:45;;;;;;;10.68;1.73;;;;;;;;;;4993536;28;20040;-87
2022/01/09 13:53:13;;;;;;;13.07;2.05;;;;;;;;;;4994790;28;20018;-83
2022/01/09 13:55:41;;;;;;;13.73;2.20;;;;;;;;;;5011276;28;20041;-85
2022/01/09 13:59:11;;;;;;;15.52;2.65;;;;;;;;;;5009548;28;20120;-86
2022/01/09 14:02:00;;;;;;;;;;;;;;;;;;;;;
2022/01/09 14:04:47;;;;;;;18.70;3.17;;;;;;;;;;4949889;28;20387;-87
2022/01/09 14:07:17;;;;;;;11.18;2.28;;;;;;;;;;4954514;28;20081;-84
2022/01/09 14:10:14;;;;;;;9.82;1.83;;;;;;;;;;4956703;28;20035;-87
2022/01/09 14:12:46;;;;;;;16.35;2.42;;;;;;;;;;4915378;29;20048;-84
2022/01/09 14:15:18;;;;;;;20.02;2.30;;;;;;;;;;5053177;23;20050;-89
2022/01/09 14:18:15;;;;;;;8.52;1.85;;;;;;;;;;5000759;28;20038;-89
2022/01/09 14:20:48;;;;;;;11.13;2.33;;;;;;;;;;5003464;28;20045;-83
2022/01/09 14:23:17;;;;;;;15.70;2.25;;;;;;;;;;5004442;28;20081;-89
2022/01/09 14:25:48;;;;;;;10.82;2.20;;;;;;;;;;5002778;28;20034;-87
2022/01/09 14:28:17;;;;;;;12.27;2.50;;;;;;;;;;5005333;28;20041;-87
2022/01/09 14:30:49;;;;;;;12.38;2.65;;;;;;;;;;5003813;28;20053;-83
2022/01/09 14:33:21;;;;;;;17.27;2.70;;;;;;;;;;5002574;28;20108;-84
2022/01/09 14:36:19;;;;;;;15.07;2.65;;;;;;;;;;5005258;28;20112;-83
2022/01/09 14:38:54;;;;;;;11.68;2.22;;;;;;;;;;5005391;28;20042;-87
2022/01/09 14:44:49;;;;;;;12.70;2.40;;;;;;;;;;4937954;29;20046;-86
2022/01/09 14:47:21;;;;;;;8.20;1.90;;;;;;;;;;4922770;29;20027;-84
2022/01/09 14:49:52;;;;;;;9.23;2.17;;;;;;;;;;5001326;28;20065;-86
2022/01/09 14:52:21;;;;;;;8.82;1.98;;;;;;;;;;5001429;28;20097;-83
2022/01/09 14:55:21;;;;;;;10.73;2.63;;;;;;;;;;5003426;28;20030;-88
2022/01/09 14:57:53;;;;;;;9.93;2.70;;;;;;;;;;5002398;28;20026;-87
2022/01/09 15:00:24;;;;;;;11.75;2.58;;;;;;;;;;5002313;28;20029;-88
2022/01/09 15:02:53;;;;;;;13.75;2.22;;;;;;;;;;5006431;28;20178;-86
2022/01/09 15:05:24;;;;;;;11.52;2.30;;;;;;;;;;5003046;28;20061;-86
2022/01/09 15:07:53;;;;;;;7.18;1.42;;;;;;;;;;5007328;28;20044;-87
2022/01/09 15:10:54;;;;;;;7.82;2.00;;;;;;;;;;5005827;28;20029;-87
2022/01/09 15:13:26;;;;;;;10.73;1.52;;;;;;;;;;4992787;28;20157;-85